sensor_id;sensor_type;location;lat;lon;timestamp;P1;durP1;ratioP1;P2;durP2;ratioP2
74535;SDS011;63013;51.104;-115.370;2023-06-22T00:01:20;0.90;;;0.80;;
74535;SDS011;63013;51.104;-115.370;2023-06-22T00:03:48;2.10;;;0.90;;
74535;SDS011;63013;51.104;-115.370;2023-06-22T00:06:15;1.10;;;0.90;;
74535;SDS011;63013;51.104;-115.370;2023-06-22T00:08:42;1.40;;;1.00;;
74535;SDS011;63013;51.104;-115.370;2023-06-22T00:11:09;1.90;;;1.10;;
74535;SDS011;63013;51.104;-115.370;2023-06-22T00:13:37;1.30;;;1.00;;
74535;SDS011;63013;51.104;-115.370;2023-06-22T00:16:04;1.10;;;0.90;;
74535;SDS011;63013;51.104;-115.370;2023-06-22T00:18:32;1.40;;;0.90;;
74535;SDS011;63013;51.104;-115.370;2023-06-22T00:20:59;1.20;;;0.90;;
74535;SDS011;63013;51.104;-115.370;2023-06-22T00:23:26;1.90;;;1.00;;
74535;SDS011;63013;51.104;-115.370;2023-06-22T00:25:53;1.80;;;0.90;;
74535;SDS011;63013;51.104;-115.370;2023-06-22T00:28:20;1.10;;;0.80;;
74535;SDS011;63013;51.104;-115.370;2023-06-22T00:30:48;1.40;;;1.20;;
74535;SDS011;63013;51.104;-115.370;2023-06-22T00:33:16;1.10;;;1.00;;
74535;SDS011;63013;51.104;-115.370;2023-06-22T00:35:43;1.50;;;0.90;;
74535;SDS011;63013;51.104;-115.370;2023-06-22T00:38:11;1.70;;;0.90;;
74535;SDS011;63013;51.104;-115.370;2023-06-22T00:40:38;1.60;;;1.00;;
74535;SDS011;63013;51.104;-115.370;2023-06-22T00:43:06;1.20;;;0.90;;
74535;SDS011;63013;51.104;-115.370;2023-06-22T00:45:33;1.20;;;0.80;;
74535;SDS011;63013;51.104;-115.370;2023-06-22T00:48:00;1.30;;;0.90;;
74535;SDS011;63013;51.104;-115.370;2023-06-22T00:50:30;1.10;;;0.80;;
74535;SDS011;63013;51.104;-115.370;2023-06-22T00:53:10;1.50;;;1.10;;
74535;SDS011;63013;51.104;-115.370;2023-06-22T00:55:42;1.60;;;1.30;;
74535;SDS011;63013;51.104;-115.370;2023-06-22T00:58:10;2.90;;;1.80;;
74535;SDS011;63013;51.104;-115.370;2023-06-22T01:00:39;2.70;;;1.90;;
74535;SDS011;63013;51.104;-115.370;2023-06-22T01:03:07;1.50;;;1.20;;
74535;SDS011;63013;51.104;-115.370;2023-06-22T01:05:36;2.10;;;1.10;;
74535;SDS011;63013;51.104;-115.370;2023-06-22T01:08:21;1.30;;;1.00;;
74535;SDS011;63013;51.104;-115.370;2023-06-22T01:11:05;1.80;;;1.00;;
74535;SDS011;63013;51.104;-115.370;2023-06-22T01:13:50;1.70;;;1.00;;
74535;SDS011;63013;51.104;-115.370;2023-06-22T01:16:29;1.80;;;1.20;;
74535;SDS011;63013;51.104;-115.370;2023-06-22T01:19:02;1.80;;;1.30;;
74535;SDS011;63013;51.104;-115.370;2023-06-22T01:21:56;1.50;;;1.10;;
74535;SDS011;63013;51.104;-115.370;2023-06-22T01:24:29;2.30;;;1.30;;
74535;SDS011;63013;51.104;-115.370;2023-06-22T01:27:32;2.00;;;0.90;;
74535;SDS011;63013;51.104;-115.370;2023-06-22T01:30:13;1.30;;;0.80;;
74535;SDS011;63013;51.104;-115.370;2023-06-22T01:32:43;1.40;;;1.00;;
74535;SDS011;63013;51.104;-115.370;2023-06-22T01:35:11;1.40;;;1.00;;
74535;SDS011;63013;51.104;-115.370;2023-06-22T01:37:39;1.40;;;1.00;;
74535;SDS011;63013;51.104;-115.370;2023-06-22T01:40:07;1.40;;;1.00;;
74535;SDS011;63013;51.104;-115.370;2023-06-22T01:42:36;1.40;;;1.00;;
74535;SDS011;63013;51.104;-115.370;2023-06-22T01:45:05;1.60;;;0.90;;
74535;SDS011;63013;51.104;-115.370;2023-06-22T01:47:34;1.20;;;1.00;;
74535;SDS011;63013;51.104;-115.370;2023-06-22T01:50:01;1.30;;;1.10;;
74535;SDS011;63013;51.104;-115.370;2023-06-22T01:52:28;2.30;;;1.00;;
74535;SDS011;63013;51.104;-115.370;2023-06-22T01:54:56;1.60;;;0.90;;
74535;SDS011;63013;51.104;-115.370;2023-06-22T01:57:23;1.40;;;1.00;;
74535;SDS011;63013;51.104;-115.370;2023-06-22T02:00:15;1.30;;;1.00;;
74535;SDS011;63013;51.104;-115.370;2023-06-22T02:03:10;1.40;;;1.00;;
74535;SDS011;63013;51.104;-115.370;2023-06-22T02:05:52;1.20;;;0.90;;
74535;SDS011;63013;51.104;-115.370;2023-06-22T02:08:32;1.20;;;0.90;;
74535;SDS011;63013;51.104;-115.370;2023-06-22T02:11:09;1.30;;;0.90;;
74535;SDS011;63013;51.104;-115.370;2023-06-22T02:13:38;1.30;;;0.90;;
74535;SDS011;63013;51.104;-115.370;2023-06-22T02:16:11;4.20;;;1.10;;
74535;SDS011;63013;51.104;-115.370;2023-06-22T02:18:39;3.50;;;0.90;;
74535;SDS011;63013;51.104;-115.370;2023-06-22T02:21:21;1.40;;;0.70;;
74535;SDS011;63013;51.104;-115.370;2023-06-22T02:23:50;1.20;;;0.90;;
74535;SDS011;63013;51.104;-115.370;2023-06-22T02:26:18;1.60;;;1.00;;
74535;SDS011;63013;51.104;-115.370;2023-06-22T02:28:45;2.60;;;1.00;;
74535;SDS011;63013;51.104;-115.370;2023-06-22T02:31:12;1.20;;;0.80;;
74535;SDS011;63013;51.104;-115.370;2023-06-22T02:33:39;1.50;;;0.80;;
74535;SDS011;63013;51.104;-115.370;2023-06-22T02:36:06;3.40;;;0.80;;
74535;SDS011;63013;51.104;-115.370;2023-06-22T02:38:35;1.20;;;0.90;;
74535;SDS011;63013;51.104;-115.370;2023-06-22T02:41:03;1.80;;;1.10;;
74535;SDS011;63013;51.104;-115.370;2023-06-22T02:43:30;1.60;;;0.90;;
74535;SDS011;63013;51.104;-115.370;2023-06-22T02:45:57;1.40;;;0.80;;
74535;SDS011;63013;51.104;-115.370;2023-06-22T02:48:24;1.20;;;0.80;;
74535;SDS011;63013;51.104;-115.370;2023-06-22T02:50:51;1.10;;;0.80;;
74535;SDS011;63013;51.104;-115.370;2023-06-22T02:53:18;1.20;;;1.00;;
74535;SDS011;63013;51.104;-115.370;2023-06-22T02:55:46;1.20;;;0.80;;
74535;SDS011;63013;51.104;-115.370;2023-06-22T02:58:13;2.00;;;0.90;;
74535;SDS011;63013;51.104;-115.370;2023-06-22T03:00:40;1.30;;;0.80;;
74535;SDS011;63013;51.104;-115.370;2023-06-22T03:03:07;1.50;;;0.90;;
74535;SDS011;63013;51.104;-115.370;2023-06-22T03:05:34;1.30;;;1.00;;
74535;SDS011;63013;51.104;-115.370;2023-06-22T03:08:01;1.20;;;1.00;;
74535;SDS011;63013;51.104;-115.370;2023-06-22T03:10:28;1.00;;;0.80;;
74535;SDS011;63013;51.104;-115.370;2023-06-22T03:12:56;0.90;;;0.70;;
74535;SDS011;63013;51.104;-115.370;2023-06-22T03:15:23;1.10;;;0.80;;
74535;SDS011;63013;51.104;-115.370;2023-06-22T03:17:51;1.50;;;1.00;;
74535;SDS011;63013;51.104;-115.370;2023-06-22T03:20:18;1.70;;;0.90;;
74535;SDS011;63013;51.104;-115.370;2023-06-22T03:22:46;1.20;;;0.90;;
74535;SDS011;63013;51.104;-115.370;2023-06-22T03:25:14;0.90;;;0.70;;
74535;SDS011;63013;51.104;-115.370;2023-06-22T03:27:42;1.60;;;0.80;;
74535;SDS011;63013;51.104;-115.370;2023-06-22T03:30:14;1.20;;;0.80;;
74535;SDS011;63013;51.104;-115.370;2023-06-22T03:32:41;1.40;;;0.80;;
74535;SDS011;63013;51.104;-115.370;2023-06-22T03:35:09;1.30;;;1.10;;
74535;SDS011;63013;51.104;-115.370;2023-06-22T03:37:39;1.50;;;0.90;;
74535;SDS011;63013;51.104;-115.370;2023-06-22T03:40:07;1.40;;;0.80;;
74535;SDS011;63013;51.104;-115.370;2023-06-22T03:42:35;1.80;;;0.80;;
74535;SDS011;63013;51.104;-115.370;2023-06-22T03:45:03;1.00;;;0.80;;
74535;SDS011;63013;51.104;-115.370;2023-06-22T03:47:32;1.40;;;0.90;;
74535;SDS011;63013;51.104;-115.370;2023-06-22T03:49:59;2.00;;;1.00;;
74535;SDS011;63013;51.104;-115.370;2023-06-22T03:52:29;1.40;;;0.80;;
74535;SDS011;63013;51.104;-115.370;2023-06-22T03:54:56;2.40;;;1.00;;
74535;SDS011;63013;51.104;-115.370;2023-06-22T03:57:24;1.20;;;0.80;;
74535;SDS011;63013;51.104;-115.370;2023-06-22T03:59:51;1.50;;;1.00;;
74535;SDS011;63013;51.104;-115.370;2023-06-22T04:02:18;1.00;;;0.90;;
74535;SDS011;63013;51.104;-115.370;2023-06-22T04:04:45;1.40;;;0.70;;
74535;SDS011;63013;51.104;-115.370;2023-06-22T04:07:11;2.00;;;0.70;;
74535;SDS011;63013;51.104;-115.370;2023-06-22T04:09:38;1.50;;;0.90;;
74535;SDS011;63013;51.104;-115.370;2023-06-22T04:12:06;2.00;;;0.90;;
74535;SDS011;63013;51.104;-115.370;2023-06-22T04:14:33;1.50;;;0.90;;
74535;SDS011;63013;51.104;-115.370;2023-06-22T04:17:01;2.40;;;0.90;;
74535;SDS011;63013;51.104;-115.370;2023-06-22T04:19:27;2.00;;;1.00;;
74535;SDS011;63013;51.104;-115.370;2023-06-22T04:21:54;1.00;;;0.90;;
74535;SDS011;63013;51.104;-115.370;2023-06-22T04:24:21;2.00;;;1.20;;
74535;SDS011;63013;51.104;-115.370;2023-06-22T04:26:48;1.10;;;0.90;;
74535;SDS011;63013;51.104;-115.370;2023-06-22T04:29:21;2.30;;;1.10;;
74535;SDS011;63013;51.104;-115.370;2023-06-22T04:31:55;1.90;;;0.90;;
74535;SDS011;63013;51.104;-115.370;2023-06-22T04:34:25;1.20;;;0.80;;
74535;SDS011;63013;51.104;-115.370;2023-06-22T04:36:55;1.40;;;0.90;;
74535;SDS011;63013;51.104;-115.370;2023-06-22T04:39:22;1.70;;;0.90;;
74535;SDS011;63013;51.104;-115.370;2023-06-22T04:41:50;1.40;;;0.80;;
74535;SDS011;63013;51.104;-115.370;2023-06-22T04:44:18;1.80;;;0.80;;
74535;SDS011;63013;51.104;-115.370;2023-06-22T04:46:57;1.20;;;0.90;;
74535;SDS011;63013;51.104;-115.370;2023-06-22T04:49:30;0.80;;;0.70;;
74535;SDS011;63013;51.104;-115.370;2023-06-22T04:52:06;1.90;;;1.00;;
74535;SDS011;63013;51.104;-115.370;2023-06-22T04:54:36;1.80;;;0.90;;
74535;SDS011;63013;51.104;-115.370;2023-06-22T04:57:07;1.90;;;0.80;;
74535;SDS011;63013;51.104;-115.370;2023-06-22T04:59:37;1.70;;;1.10;;
74535;SDS011;63013;51.104;-115.370;2023-06-22T05:02:08;1.40;;;0.90;;
74535;SDS011;63013;51.104;-115.370;2023-06-22T05:04:35;1.50;;;1.00;;
74535;SDS011;63013;51.104;-115.370;2023-06-22T05:07:04;2.10;;;0.90;;
74535;SDS011;63013;51.104;-115.370;2023-06-22T05:09:32;2.30;;;0.80;;
74535;SDS011;63013;51.104;-115.370;2023-06-22T05:12:00;1.00;;;0.80;;
74535;SDS011;63013;51.104;-115.370;2023-06-22T05:14:29;1.30;;;1.00;;
74535;SDS011;63013;51.104;-115.370;2023-06-22T05:16:56;2.30;;;0.90;;
74535;SDS011;63013;51.104;-115.370;2023-06-22T05:19:30;1.20;;;0.80;;
74535;SDS011;63013;51.104;-115.370;2023-06-22T05:21:59;1.10;;;0.90;;
74535;SDS011;63013;51.104;-115.370;2023-06-22T05:24:26;1.20;;;0.80;;
74535;SDS011;63013;51.104;-115.370;2023-06-22T05:26:53;2.40;;;1.00;;
74535;SDS011;63013;51.104;-115.370;2023-06-22T05:29:20;1.20;;;0.80;;
74535;SDS011;63013;51.104;-115.370;2023-06-22T05:31:48;1.30;;;0.90;;
74535;SDS011;63013;51.104;-115.370;2023-06-22T05:34:15;1.30;;;1.10;;
74535;SDS011;63013;51.104;-115.370;2023-06-22T05:36:42;0.90;;;0.80;;
74535;SDS011;63013;51.104;-115.370;2023-06-22T05:39:14;0.90;;;0.70;;
74535;SDS011;63013;51.104;-115.370;2023-06-22T05:41:42;1.20;;;0.60;;
74535;SDS011;63013;51.104;-115.370;2023-06-22T05:44:09;2.40;;;1.00;;
74535;SDS011;63013;51.104;-115.370;2023-06-22T05:46:37;2.10;;;0.90;;
74535;SDS011;63013;51.104;-115.370;2023-06-22T05:49:11;1.10;;;0.80;;
74535;SDS011;63013;51.104;-115.370;2023-06-22T05:51:40;0.90;;;0.70;;
74535;SDS011;63013;51.104;-115.370;2023-06-22T05:54:07;0.90;;;0.60;;
74535;SDS011;63013;51.104;-115.370;2023-06-22T05:56:34;2.50;;;1.20;;
74535;SDS011;63013;51.104;-115.370;2023-06-22T05:59:01;1.60;;;0.90;;
74535;SDS011;63013;51.104;-115.370;2023-06-22T06:01:30;1.40;;;0.70;;
74535;SDS011;63013;51.104;-115.370;2023-06-22T06:04:02;1.10;;;0.80;;
74535;SDS011;63013;51.104;-115.370;2023-06-22T06:06:35;1.60;;;0.70;;
74535;SDS011;63013;51.104;-115.370;2023-06-22T06:09:06;1.10;;;0.70;;
74535;SDS011;63013;51.104;-115.370;2023-06-22T06:11:33;1.10;;;1.00;;
74535;SDS011;63013;51.104;-115.370;2023-06-22T06:14:00;1.00;;;0.60;;
74535;SDS011;63013;51.104;-115.370;2023-06-22T06:16:27;0.80;;;0.60;;
74535;SDS011;63013;51.104;-115.370;2023-06-22T06:18:54;0.90;;;0.70;;
74535;SDS011;63013;51.104;-115.370;2023-06-22T06:21:22;1.30;;;0.60;;
74535;SDS011;63013;51.104;-115.370;2023-06-22T06:23:50;1.20;;;1.00;;
74535;SDS011;63013;51.104;-115.370;2023-06-22T06:26:17;1.40;;;0.90;;
74535;SDS011;63013;51.104;-115.370;2023-06-22T06:28:44;1.70;;;0.70;;
74535;SDS011;63013;51.104;-115.370;2023-06-22T06:31:12;1.10;;;0.80;;
74535;SDS011;63013;51.104;-115.370;2023-06-22T06:33:43;0.90;;;0.80;;
74535;SDS011;63013;51.104;-115.370;2023-06-22T06:36:09;1.10;;;0.80;;
74535;SDS011;63013;51.104;-115.370;2023-06-22T06:38:36;0.90;;;0.60;;
74535;SDS011;63013;51.104;-115.370;2023-06-22T06:41:03;0.90;;;0.70;;
74535;SDS011;63013;51.104;-115.370;2023-06-22T06:43:30;1.10;;;0.70;;
74535;SDS011;63013;51.104;-115.370;2023-06-22T06:45:57;1.00;;;0.80;;
74535;SDS011;63013;51.104;-115.370;2023-06-22T06:48:25;1.10;;;0.70;;
74535;SDS011;63013;51.104;-115.370;2023-06-22T06:50:51;1.10;;;0.70;;
74535;SDS011;63013;51.104;-115.370;2023-06-22T06:53:21;1.30;;;0.70;;
74535;SDS011;63013;51.104;-115.370;2023-06-22T06:55:48;1.10;;;0.80;;
74535;SDS011;63013;51.104;-115.370;2023-06-22T06:58:16;1.00;;;0.70;;
74535;SDS011;63013;51.104;-115.370;2023-06-22T07:00:43;1.60;;;0.80;;
74535;SDS011;63013;51.104;-115.370;2023-06-22T07:03:10;0.90;;;0.70;;
74535;SDS011;63013;51.104;-115.370;2023-06-22T07:05:37;1.00;;;0.80;;
74535;SDS011;63013;51.104;-115.370;2023-06-22T07:08:04;1.20;;;0.80;;
74535;SDS011;63013;51.104;-115.370;2023-06-22T07:10:31;0.90;;;0.60;;
74535;SDS011;63013;51.104;-115.370;2023-06-22T07:12:58;1.00;;;0.80;;
74535;SDS011;63013;51.104;-115.370;2023-06-22T07:15:25;1.10;;;0.80;;
74535;SDS011;63013;51.104;-115.370;2023-06-22T07:17:53;1.30;;;0.70;;
74535;SDS011;63013;51.104;-115.370;2023-06-22T07:20:20;1.30;;;0.80;;
74535;SDS011;63013;51.104;-115.370;2023-06-22T07:22:47;2.00;;;0.80;;
74535;SDS011;63013;51.104;-115.370;2023-06-22T07:25:14;0.80;;;0.70;;
74535;SDS011;63013;51.104;-115.370;2023-06-22T07:27:56;1.20;;;0.90;;
74535;SDS011;63013;51.104;-115.370;2023-06-22T07:30:25;1.70;;;0.70;;
74535;SDS011;63013;51.104;-115.370;2023-06-22T07:32:53;0.90;;;0.80;;
74535;SDS011;63013;51.104;-115.370;2023-06-22T07:35:20;1.20;;;0.80;;
74535;SDS011;63013;51.104;-115.370;2023-06-22T07:37:47;0.70;;;0.60;;
74535;SDS011;63013;51.104;-115.370;2023-06-22T07:40:14;0.90;;;0.70;;
74535;SDS011;63013;51.104;-115.370;2023-06-22T07:42:41;0.60;;;0.60;;
74535;SDS011;63013;51.104;-115.370;2023-06-22T07:45:08;0.80;;;0.70;;
74535;SDS011;63013;51.104;-115.370;2023-06-22T07:47:36;1.20;;;0.70;;
74535;SDS011;63013;51.104;-115.370;2023-06-22T07:50:03;1.20;;;0.80;;
74535;SDS011;63013;51.104;-115.370;2023-06-22T07:52:31;1.20;;;0.80;;
74535;SDS011;63013;51.104;-115.370;2023-06-22T07:54:58;1.30;;;0.70;;
74535;SDS011;63013;51.104;-115.370;2023-06-22T07:57:25;1.00;;;0.80;;
74535;SDS011;63013;51.104;-115.370;2023-06-22T08:00:00;1.00;;;0.70;;
74535;SDS011;63013;51.104;-115.370;2023-06-22T08:02:30;1.20;;;0.70;;
74535;SDS011;63013;51.104;-115.370;2023-06-22T08:04:57;1.00;;;0.70;;
74535;SDS011;63013;51.104;-115.370;2023-06-22T08:07:24;0.90;;;0.60;;
74535;SDS011;63013;51.104;-115.370;2023-06-22T08:09:51;1.00;;;0.70;;
74535;SDS011;63013;51.104;-115.370;2023-06-22T08:12:17;1.00;;;0.70;;
74535;SDS011;63013;51.104;-115.370;2023-06-22T08:14:45;0.80;;;0.80;;
74535;SDS011;63013;51.104;-115.370;2023-06-22T08:17:12;0.80;;;0.40;;
74535;SDS011;63013;51.104;-115.370;2023-06-22T08:19:40;2.00;;;0.80;;
74535;SDS011;63013;51.104;-115.370;2023-06-22T08:22:07;1.20;;;0.50;;
74535;SDS011;63013;51.104;-115.370;2023-06-22T08:24:34;0.80;;;0.50;;
74535;SDS011;63013;51.104;-115.370;2023-06-22T08:27:00;1.70;;;0.70;;
74535;SDS011;63013;51.104;-115.370;2023-06-22T08:29:28;0.80;;;0.60;;
74535;SDS011;63013;51.104;-115.370;2023-06-22T08:31:55;1.00;;;0.60;;
74535;SDS011;63013;51.104;-115.370;2023-06-22T08:34:21;5.10;;;0.80;;
74535;SDS011;63013;51.104;-115.370;2023-06-22T08:36:49;0.60;;;0.50;;
74535;SDS011;63013;51.104;-115.370;2023-06-22T08:39:18;0.80;;;0.70;;
74535;SDS011;63013;51.104;-115.370;2023-06-22T08:41:49;1.70;;;0.60;;
74535;SDS011;63013;51.104;-115.370;2023-06-22T08:44:18;1.60;;;0.70;;
74535;SDS011;63013;51.104;-115.370;2023-06-22T08:46:46;1.20;;;0.70;;
74535;SDS011;63013;51.104;-115.370;2023-06-22T08:49:13;1.30;;;0.70;;
74535;SDS011;63013;51.104;-115.370;2023-06-22T08:51:40;0.70;;;0.60;;
74535;SDS011;63013;51.104;-115.370;2023-06-22T08:54:07;1.40;;;0.80;;
74535;SDS011;63013;51.104;-115.370;2023-06-22T08:56:34;1.10;;;0.60;;
74535;SDS011;63013;51.104;-115.370;2023-06-22T08:59:01;1.00;;;0.60;;
74535;SDS011;63013;51.104;-115.370;2023-06-22T09:01:28;0.70;;;0.60;;
74535;SDS011;63013;51.104;-115.370;2023-06-22T09:03:55;0.80;;;0.60;;
74535;SDS011;63013;51.104;-115.370;2023-06-22T09:06:24;0.70;;;0.60;;
74535;SDS011;63013;51.104;-115.370;2023-06-22T09:08:51;0.90;;;0.50;;
74535;SDS011;63013;51.104;-115.370;2023-06-22T09:11:18;1.90;;;0.70;;
74535;SDS011;63013;51.104;-115.370;2023-06-22T09:13:46;0.60;;;0.60;;
74535;SDS011;63013;51.104;-115.370;2023-06-22T09:16:14;0.80;;;0.50;;
74535;SDS011;63013;51.104;-115.370;2023-06-22T09:18:40;0.90;;;0.60;;
74535;SDS011;63013;51.104;-115.370;2023-06-22T09:21:08;0.60;;;0.50;;
74535;SDS011;63013;51.104;-115.370;2023-06-22T09:23:35;1.20;;;0.60;;
74535;SDS011;63013;51.104;-115.370;2023-06-22T09:26:01;1.10;;;0.70;;
74535;SDS011;63013;51.104;-115.370;2023-06-22T09:28:30;0.90;;;0.50;;
74535;SDS011;63013;51.104;-115.370;2023-06-22T09:30:56;1.00;;;0.60;;
74535;SDS011;63013;51.104;-115.370;2023-06-22T09:33:26;0.80;;;0.50;;
74535;SDS011;63013;51.104;-115.370;2023-06-22T09:35:53;1.60;;;0.70;;
74535;SDS011;63013;51.104;-115.370;2023-06-22T09:38:20;1.10;;;0.50;;
74535;SDS011;63013;51.104;-115.370;2023-06-22T09:40:47;1.50;;;0.60;;
74535;SDS011;63013;51.104;-115.370;2023-06-22T09:43:14;1.00;;;0.80;;
74535;SDS011;63013;51.104;-115.370;2023-06-22T09:45:41;0.70;;;0.50;;
74535;SDS011;63013;51.104;-115.370;2023-06-22T09:48:08;1.10;;;0.70;;
74535;SDS011;63013;51.104;-115.370;2023-06-22T09:50:38;0.90;;;0.60;;
74535;SDS011;63013;51.104;-115.370;2023-06-22T09:53:05;0.50;;;0.50;;
74535;SDS011;63013;51.104;-115.370;2023-06-22T09:55:32;0.80;;;0.70;;
74535;SDS011;63013;51.104;-115.370;2023-06-22T09:57:59;0.70;;;0.50;;
74535;SDS011;63013;51.104;-115.370;2023-06-22T10:00:26;0.80;;;0.60;;
74535;SDS011;63013;51.104;-115.370;2023-06-22T10:02:53;1.40;;;0.70;;
74535;SDS011;63013;51.104;-115.370;2023-06-22T10:05:21;0.80;;;0.60;;
74535;SDS011;63013;51.104;-115.370;2023-06-22T10:07:49;0.70;;;0.60;;
74535;SDS011;63013;51.104;-115.370;2023-06-22T10:10:16;0.80;;;0.50;;
74535;SDS011;63013;51.104;-115.370;2023-06-22T10:12:46;0.60;;;0.50;;
74535;SDS011;63013;51.104;-115.370;2023-06-22T10:15:15;0.80;;;0.60;;
74535;SDS011;63013;51.104;-115.370;2023-06-22T10:17:42;1.70;;;0.70;;
74535;SDS011;63013;51.104;-115.370;2023-06-22T10:20:09;0.70;;;0.50;;
74535;SDS011;63013;51.104;-115.370;2023-06-22T10:22:44;0.70;;;0.50;;
74535;SDS011;63013;51.104;-115.370;2023-06-22T10:25:12;1.30;;;0.70;;
74535;SDS011;63013;51.104;-115.370;2023-06-22T10:27:39;0.60;;;0.50;;
74535;SDS011;63013;51.104;-115.370;2023-06-22T10:30:11;0.80;;;0.50;;
74535;SDS011;63013;51.104;-115.370;2023-06-22T10:32:42;0.90;;;0.60;;
74535;SDS011;63013;51.104;-115.370;2023-06-22T10:35:10;0.70;;;0.50;;
74535;SDS011;63013;51.104;-115.370;2023-06-22T10:37:39;1.10;;;0.80;;
74535;SDS011;63013;51.104;-115.370;2023-06-22T10:40:09;0.70;;;0.50;;
74535;SDS011;63013;51.104;-115.370;2023-06-22T10:42:36;0.90;;;0.50;;
74535;SDS011;63013;51.104;-115.370;2023-06-22T10:45:04;0.80;;;0.60;;
74535;SDS011;63013;51.104;-115.370;2023-06-22T10:47:31;0.60;;;0.50;;
74535;SDS011;63013;51.104;-115.370;2023-06-22T10:49:58;0.60;;;0.40;;
74535;SDS011;63013;51.104;-115.370;2023-06-22T10:52:25;0.60;;;0.60;;
74535;SDS011;63013;51.104;-115.370;2023-06-22T10:54:52;0.40;;;0.40;;
74535;SDS011;63013;51.104;-115.370;2023-06-22T10:57:19;0.50;;;0.50;;
74535;SDS011;63013;51.104;-115.370;2023-06-22T10:59:47;0.60;;;0.60;;
74535;SDS011;63013;51.104;-115.370;2023-06-22T11:02:14;0.80;;;0.60;;
74535;SDS011;63013;51.104;-115.370;2023-06-22T11:04:41;0.70;;;0.60;;
74535;SDS011;63013;51.104;-115.370;2023-06-22T11:07:09;1.00;;;0.50;;
74535;SDS011;63013;51.104;-115.370;2023-06-22T11:09:36;0.70;;;0.70;;
74535;SDS011;63013;51.104;-115.370;2023-06-22T11:12:06;0.60;;;0.40;;
74535;SDS011;63013;51.104;-115.370;2023-06-22T11:14:33;0.50;;;0.40;;
74535;SDS011;63013;51.104;-115.370;2023-06-22T11:17:00;0.70;;;0.50;;
74535;SDS011;63013;51.104;-115.370;2023-06-22T11:19:28;0.80;;;0.60;;
74535;SDS011;63013;51.104;-115.370;2023-06-22T11:21:55;0.70;;;0.50;;
74535;SDS011;63013;51.104;-115.370;2023-06-22T11:24:22;0.60;;;0.50;;
74535;SDS011;63013;51.104;-115.370;2023-06-22T11:26:49;0.80;;;0.60;;
74535;SDS011;63013;51.104;-115.370;2023-06-22T11:29:17;0.60;;;0.60;;
74535;SDS011;63013;51.104;-115.370;2023-06-22T11:31:44;0.50;;;0.50;;
74535;SDS011;63013;51.104;-115.370;2023-06-22T11:34:11;1.10;;;0.60;;
74535;SDS011;63013;51.104;-115.370;2023-06-22T11:36:38;1.10;;;0.50;;
74535;SDS011;63013;51.104;-115.370;2023-06-22T11:39:07;0.60;;;0.50;;
74535;SDS011;63013;51.104;-115.370;2023-06-22T11:41:35;0.60;;;0.40;;
74535;SDS011;63013;51.104;-115.370;2023-06-22T11:44:02;0.60;;;0.50;;
74535;SDS011;63013;51.104;-115.370;2023-06-22T11:46:30;0.50;;;0.50;;
74535;SDS011;63013;51.104;-115.370;2023-06-22T11:48:58;1.20;;;0.60;;
74535;SDS011;63013;51.104;-115.370;2023-06-22T11:51:25;0.80;;;0.60;;
74535;SDS011;63013;51.104;-115.370;2023-06-22T11:53:53;0.50;;;0.40;;
74535;SDS011;63013;51.104;-115.370;2023-06-22T11:56:20;0.60;;;0.50;;
74535;SDS011;63013;51.104;-115.370;2023-06-22T11:58:47;1.10;;;0.50;;
74535;SDS011;63013;51.104;-115.370;2023-06-22T12:01:14;0.60;;;0.50;;
74535;SDS011;63013;51.104;-115.370;2023-06-22T12:03:42;0.70;;;0.50;;
74535;SDS011;63013;51.104;-115.370;2023-06-22T12:06:11;1.40;;;0.50;;
74535;SDS011;63013;51.104;-115.370;2023-06-22T12:08:39;0.60;;;0.60;;
74535;SDS011;63013;51.104;-115.370;2023-06-22T12:11:05;0.60;;;0.50;;
74535;SDS011;63013;51.104;-115.370;2023-06-22T12:13:32;0.70;;;0.60;;
74535;SDS011;63013;51.104;-115.370;2023-06-22T12:15:59;0.60;;;0.50;;
74535;SDS011;63013;51.104;-115.370;2023-06-22T12:18:26;0.50;;;0.50;;
74535;SDS011;63013;51.104;-115.370;2023-06-22T12:20:53;0.80;;;0.50;;
74535;SDS011;63013;51.104;-115.370;2023-06-22T12:23:20;0.80;;;0.40;;
74535;SDS011;63013;51.104;-115.370;2023-06-22T12:25:47;0.60;;;0.50;;
74535;SDS011;63013;51.104;-115.370;2023-06-22T12:28:14;0.70;;;0.50;;
74535;SDS011;63013;51.104;-115.370;2023-06-22T12:30:41;0.60;;;0.50;;
74535;SDS011;63013;51.104;-115.370;2023-06-22T12:33:08;0.80;;;0.40;;
74535;SDS011;63013;51.104;-115.370;2023-06-22T12:35:35;0.50;;;0.40;;
74535;SDS011;63013;51.104;-115.370;2023-06-22T12:38:02;0.60;;;0.40;;
74535;SDS011;63013;51.104;-115.370;2023-06-22T12:40:32;0.60;;;0.50;;
74535;SDS011;63013;51.104;-115.370;2023-06-22T12:42:59;0.50;;;0.40;;
74535;SDS011;63013;51.104;-115.370;2023-06-22T12:45:28;0.60;;;0.40;;
74535;SDS011;63013;51.104;-115.370;2023-06-22T12:47:58;0.50;;;0.50;;
74535;SDS011;63013;51.104;-115.370;2023-06-22T12:50:25;0.50;;;0.40;;
74535;SDS011;63013;51.104;-115.370;2023-06-22T12:52:52;0.80;;;0.50;;
74535;SDS011;63013;51.104;-115.370;2023-06-22T12:55:19;0.50;;;0.50;;
74535;SDS011;63013;51.104;-115.370;2023-06-22T12:57:46;0.80;;;0.50;;
74535;SDS011;63013;51.104;-115.370;2023-06-22T13:00:13;1.00;;;0.50;;
74535;SDS011;63013;51.104;-115.370;2023-06-22T13:02:41;0.60;;;0.50;;
74535;SDS011;63013;51.104;-115.370;2023-06-22T13:05:08;0.80;;;0.50;;
74535;SDS011;63013;51.104;-115.370;2023-06-22T13:07:35;0.70;;;0.50;;
74535;SDS011;63013;51.104;-115.370;2023-06-22T13:10:02;0.60;;;0.50;;
74535;SDS011;63013;51.104;-115.370;2023-06-22T13:12:29;0.90;;;0.50;;
74535;SDS011;63013;51.104;-115.370;2023-06-22T13:14:56;0.80;;;0.50;;
74535;SDS011;63013;51.104;-115.370;2023-06-22T13:17:23;0.60;;;0.40;;
74535;SDS011;63013;51.104;-115.370;2023-06-22T13:19:51;0.60;;;0.50;;
74535;SDS011;63013;51.104;-115.370;2023-06-22T13:22:31;0.50;;;0.50;;
74535;SDS011;63013;51.104;-115.370;2023-06-22T13:25:06;1.10;;;0.50;;
74535;SDS011;63013;51.104;-115.370;2023-06-22T13:27:36;1.80;;;0.60;;
74535;SDS011;63013;51.104;-115.370;2023-06-22T13:30:03;0.80;;;0.50;;
74535;SDS011;63013;51.104;-115.370;2023-06-22T13:32:30;0.60;;;0.40;;
74535;SDS011;63013;51.104;-115.370;2023-06-22T13:34:57;0.60;;;0.50;;
74535;SDS011;63013;51.104;-115.370;2023-06-22T13:37:25;0.50;;;0.50;;
74535;SDS011;63013;51.104;-115.370;2023-06-22T13:39:52;0.60;;;0.40;;
74535;SDS011;63013;51.104;-115.370;2023-06-22T13:42:22;0.60;;;0.40;;
74535;SDS011;63013;51.104;-115.370;2023-06-22T13:44:50;0.50;;;0.50;;
74535;SDS011;63013;51.104;-115.370;2023-06-22T13:47:17;1.00;;;0.50;;
74535;SDS011;63013;51.104;-115.370;2023-06-22T13:49:44;0.40;;;0.40;;
74535;SDS011;63013;51.104;-115.370;2023-06-22T13:52:11;0.80;;;0.50;;
74535;SDS011;63013;51.104;-115.370;2023-06-22T13:54:38;0.60;;;0.50;;
74535;SDS011;63013;51.104;-115.370;2023-06-22T13:57:06;0.80;;;0.60;;
74535;SDS011;63013;51.104;-115.370;2023-06-22T13:59:33;0.70;;;0.40;;
74535;SDS011;63013;51.104;-115.370;2023-06-22T14:02:00;0.50;;;0.40;;
74535;SDS011;63013;51.104;-115.370;2023-06-22T14:04:28;1.00;;;0.50;;
74535;SDS011;63013;51.104;-115.370;2023-06-22T14:06:54;0.80;;;0.60;;
74535;SDS011;63013;51.104;-115.370;2023-06-22T14:09:22;3.30;;;0.70;;
74535;SDS011;63013;51.104;-115.370;2023-06-22T14:11:49;1.50;;;0.60;;
74535;SDS011;63013;51.104;-115.370;2023-06-22T14:14:16;0.80;;;0.50;;
74535;SDS011;63013;51.104;-115.370;2023-06-22T14:16:43;1.00;;;0.50;;